Terminal Aerodrome Forecast
Issued by NWS Sterling, VA

Home | Current Version | Previous Version | Text Only | Print | Product List | Glossary On
Versions: 1 2 3 4 5 6 7 8 9 10 11 12 13 14 15 16 17 18 19 20 21
000
FTUS41 KLWX 062329
TAFMRB
TAF
KMRB 062329Z 0700/0724 15005KT P6SM SCT250
     FM070200 VRB03KT P6SM SCT250
     FM071600 20005KT P6SM SCT250
     FM071900 23008KT P6SM BKN100=

USA.gov is the U.S. government's official web portal to all federal, state and local government web resources and services.